Merna, IL (61758)

4:01 AM CDT on August 05, 2015 (GMT -0500)
The Grove | | Change Station
CLOSE
Current Station
Personal Weather Station
Location: Bloomington, IL
Elevation: 837 ft
Nearby Weather Stations

Elev 837 ft 40.46 °N, 88.88 °W | Updated 8 minutes ago

Partly Cloudy
Partly Cloudy
61.2 °F
Feels Like 61.2 °F
N
0.0
Wind Variable Wind from West

Today
High -- | Low -- °F
--% Chance of Precip.
Yesterday
High -- | Low -- °F
Precip. -- in
5:56 AM 8:05 PM
Waning Gibbous, 69% visible
Pressure 30.03 in
Visibility 10.0 miles
Clouds Clear
Dew Point 61 °F
Humidity 99%
Rainfall 0.00 in
Snow Depth Not available.
UV 0 out of 12
Pollen 6.80 out of 12
Air Quality Not available.
Flu Activity Not available.
METAR KBMI 050856Z AUTO 05004KT 10SM CLR 19/17 A3006 RMK AO2 53000 T01940166 SLP168

More Conditions Fewer Conditions

Pressure 30.03 in
Visibility 10.0 miles
Clouds Clear
Dew Point 61 °F
Humidity 99%
Rainfall 0.00 in
Snow Depth Not available.
UV 0 out of 12
Pollen 6.80 out of 12
Air Quality Not available.
Flu Activity Not available.
METAR KBMI 050856Z AUTO 05004KT 10SM CLR 19/17 A3006 RMK AO2 53000 T01940166 SLP168

More Conditions Fewer Conditions

10-Day Weather Forecast

×

Almanac

Astronomy

Aug. 05, 2015 Rise Set
Actual Time
Civil Twilight
Nautical Twilight
Astronomical Twilight
Moon
Length of Visible Light
Length of Day
Tomorrow will be .
, % of the Moon is Illuminated

Today's Extremes

State Highs State Lows

Community

WunderPhotos

Upload Photos

1,844,105 photos uploaded!

WunderBlogs® & News

Nearby

Air Quality

  Air Quality AQ Index Pollutant
Not available.

Snow Depth

Station Depth Elevation

Earthquake Activity

City Distance Mag. Time & Date
Minimum magnitude displayed is 2.5.

Coastal Water Temperatures

Place Temperature

Stations

Nearby Weather Stations

Station Location Temp. Windchill Dew Point Humidity Wind Precip. Elev Updated Type